createdAt,value
2023-05-25T00:02:16.047Z,16.18
2023-05-25T00:04:48.847Z,16.14
2023-05-25T00:07:19.171Z,16.10
2023-05-25T00:09:49.803Z,16.06
2023-05-25T00:12:19.739Z,16.01
2023-05-25T00:14:49.637Z,15.95
2023-05-25T00:17:19.949Z,15.91
2023-05-25T00:19:50.523Z,15.90
2023-05-25T00:22:20.761Z,15.87
2023-05-25T00:24:50.835Z,15.85
2023-05-25T00:27:20.866Z,15.84
2023-05-25T00:29:51.062Z,15.84
2023-05-25T00:32:22.267Z,15.85
2023-05-25T00:34:52.281Z,15.84
2023-05-25T00:37:22.447Z,15.84
2023-05-25T00:39:53.332Z,15.84
2023-05-25T00:42:23.506Z,15.83
2023-05-25T00:44:53.473Z,15.82
2023-05-25T00:47:24.581Z,15.81
2023-05-25T00:49:56.356Z,15.80
2023-05-25T00:52:27.603Z,15.79
2023-05-25T00:54:57.624Z,15.77
2023-05-25T00:57:28.079Z,15.76
2023-05-25T00:59:57.993Z,15.76
2023-05-25T01:02:31.146Z,15.74
2023-05-25T01:05:02.685Z,15.73
2023-05-25T01:07:37.069Z,15.72
2023-05-25T01:10:09.100Z,15.71
2023-05-25T01:12:40.479Z,15.71
2023-05-25T01:15:11.867Z,15.69
2023-05-25T01:17:43.832Z,15.67
2023-05-25T01:20:14.819Z,15.66
2023-05-25T01:22:47.976Z,15.63
2023-05-25T01:25:21.951Z,15.63
2023-05-25T01:27:54.394Z,15.61
2023-05-25T01:30:25.064Z,15.59
2023-05-25T01:32:55.784Z,15.56
2023-05-25T01:35:25.769Z,15.53
2023-05-25T01:37:56.192Z,15.50
2023-05-25T01:40:26.568Z,15.46
2023-05-25T01:42:56.512Z,15.44
2023-05-25T01:45:26.875Z,15.42
2023-05-25T01:48:14.087Z,15.39
2023-05-25T01:50:46.988Z,15.35
2023-05-25T01:53:18.911Z,15.31
2023-05-25T01:55:50.851Z,15.28
2023-05-25T01:58:21.232Z,15.26
2023-05-25T02:00:51.438Z,15.24
2023-05-25T02:03:21.783Z,15.22
2023-05-25T02:05:52.150Z,15.21
2023-05-25T02:08:22.524Z,15.19
2023-05-25T02:10:52.579Z,15.17
2023-05-25T02:13:23.140Z,15.14
2023-05-25T02:15:54.131Z,15.12
2023-05-25T02:18:24.068Z,15.11
2023-05-25T02:20:57.390Z,15.09
2023-05-25T02:23:28.959Z,15.06
2023-05-25T02:25:59.047Z,15.04
2023-05-25T02:28:29.348Z,14.99
2023-05-25T02:30:59.563Z,14.93
2023-05-25T02:33:29.728Z,14.88
2023-05-25T02:36:00.696Z,14.83
2023-05-25T02:38:30.851Z,14.77
2023-05-25T02:41:01.258Z,14.72
2023-05-25T02:43:31.390Z,14.66
2023-05-25T02:46:01.555Z,14.62
2023-05-25T02:48:31.587Z,14.58
2023-05-25T02:51:02.998Z,15.01
2023-05-25T02:53:34.103Z,17.54
2023-05-25T02:56:06.425Z,17.92
2023-05-25T02:58:37.416Z,17.34
2023-05-25T03:01:18.415Z,16.80
2023-05-25T03:03:53.382Z,16.42
2023-05-25T03:06:26.357Z,16.16
2023-05-25T03:09:09.271Z,15.96
2023-05-25T03:11:39.852Z,15.82
2023-05-25T03:14:11.526Z,15.72
2023-05-25T03:16:42.416Z,15.65
2023-05-25T03:19:13.011Z,15.58
2023-05-25T03:21:43.349Z,15.54
2023-05-25T03:24:13.751Z,15.51
2023-05-25T03:26:44.289Z,15.49
2023-05-25T03:29:14.824Z,15.48
2023-05-25T03:31:44.994Z,15.47
2023-05-25T03:34:16.158Z,15.48
2023-05-25T03:36:47.713Z,15.50
2023-05-25T03:39:19.058Z,15.53
2023-05-25T03:41:49.230Z,15.57
2023-05-25T03:44:22.283Z,16.10
2023-05-25T03:46:52.940Z,18.69
2023-05-25T03:49:23.218Z,19.17
2023-05-25T03:51:53.766Z,18.65
2023-05-25T03:54:23.923Z,18.17
2023-05-25T03:56:54.851Z,17.83
2023-05-25T03:59:25.820Z,17.58
2023-05-25T04:01:56.064Z,17.42
2023-05-25T04:04:28.403Z,17.29
2023-05-25T04:06:59.042Z,17.21
2023-05-25T04:09:29.428Z,17.15
2023-05-25T04:12:00.243Z,17.11
2023-05-25T04:14:30.730Z,17.09
2023-05-25T04:17:00.743Z,17.07
2023-05-25T04:19:31.169Z,17.07
2023-05-25T04:22:01.735Z,17.08
2023-05-25T04:24:34.329Z,17.10
2023-05-25T04:27:05.561Z,17.11
2023-05-25T04:29:37.374Z,17.15
2023-05-25T04:32:29.857Z,17.18
2023-05-25T04:35:21.050Z,17.23
2023-05-25T04:37:54.754Z,17.27
2023-05-25T04:40:24.957Z,17.32
2023-05-25T04:42:57.182Z,17.37
2023-05-25T04:45:29.302Z,17.44
2023-05-25T04:48:01.940Z,17.50
2023-05-25T04:50:34.194Z,17.57
2023-05-25T04:53:04.566Z,17.65
2023-05-25T04:55:34.940Z,17.73
2023-05-25T04:58:05.768Z,17.80
2023-05-25T05:00:36.501Z,17.88
2023-05-25T05:03:06.919Z,17.97
2023-05-25T05:05:37.228Z,18.06
2023-05-25T05:08:09.660Z,18.16
2023-05-25T05:10:40.072Z,18.24
2023-05-25T05:13:11.336Z,18.34
2023-05-25T05:15:41.914Z,18.43
2023-05-25T05:18:14.107Z,18.53
2023-05-25T05:20:44.811Z,18.63
2023-05-25T05:23:15.333Z,18.72
2023-05-25T05:25:46.530Z,18.82
2023-05-25T05:28:18.367Z,18.92
2023-05-25T05:30:49.288Z,19.03
2023-05-25T05:33:19.603Z,19.13
2023-05-25T05:35:50.489Z,19.23
2023-05-25T05:38:25.915Z,19.33
2023-05-25T05:40:56.275Z,19.43
2023-05-25T05:43:26.862Z,19.52
2023-05-25T05:45:56.774Z,19.62
2023-05-25T05:48:27.108Z,19.71
2023-05-25T05:50:57.383Z,19.81
2023-05-25T05:53:27.894Z,19.91
2023-05-25T05:55:59.812Z,20.02
2023-05-25T05:58:30.103Z,20.12
2023-05-25T06:01:01.565Z,20.23
2023-05-25T06:03:32.702Z,20.33
2023-05-25T06:06:03.457Z,20.43
2023-05-25T06:08:33.911Z,20.52
2023-05-25T06:11:03.859Z,20.62
2023-05-25T06:13:33.843Z,20.71
2023-05-25T06:16:04.252Z,20.81
2023-05-25T06:18:34.751Z,20.90
2023-05-25T06:21:06.158Z,21.01
2023-05-25T06:23:36.260Z,21.12
2023-05-25T06:26:06.694Z,21.22
2023-05-25T06:28:36.762Z,21.32
2023-05-25T06:31:07.038Z,21.43
2023-05-25T06:33:37.675Z,21.54
2023-05-25T06:36:11.101Z,21.65
2023-05-25T06:38:42.177Z,21.75
2023-05-25T06:41:15.158Z,21.85
2023-05-25T06:43:46.008Z,21.96
2023-05-25T06:46:27.935Z,22.05
2023-05-25T06:48:58.086Z,22.14
2023-05-25T06:51:28.282Z,22.23
2023-05-25T06:53:58.172Z,22.33
2023-05-25T06:56:28.296Z,22.42
2023-05-25T06:58:58.302Z,22.50
2023-05-25T07:01:28.392Z,22.60
2023-05-25T07:03:58.512Z,22.68
2023-05-25T07:06:28.938Z,22.77
2023-05-25T07:08:59.090Z,22.87
2023-05-25T07:11:29.078Z,22.94
2023-05-25T07:13:59.384Z,23.00
2023-05-25T07:16:29.365Z,23.07
2023-05-25T07:19:00.342Z,23.16
2023-05-25T07:21:36.589Z,23.26
2023-05-25T07:24:07.191Z,23.34
2023-05-25T07:26:37.261Z,23.42
2023-05-25T07:29:07.820Z,23.51
2023-05-25T07:31:37.725Z,23.60
2023-05-25T07:34:07.613Z,23.69
2023-05-25T07:36:37.657Z,23.77
2023-05-25T07:39:09.124Z,23.86
2023-05-25T07:41:39.324Z,23.95
2023-05-25T07:44:09.331Z,24.05
2023-05-25T07:46:39.364Z,24.13
2023-05-25T07:49:13.312Z,24.19
2023-05-25T07:51:43.317Z,24.21
2023-05-25T07:54:13.409Z,24.22
2023-05-25T07:56:43.539Z,24.22
2023-05-25T07:59:14.485Z,24.23
2023-05-25T08:01:44.608Z,24.25
2023-05-25T08:04:14.824Z,24.27
2023-05-25T08:06:46.521Z,24.29
2023-05-25T08:09:16.872Z,24.28
2023-05-25T08:11:48.097Z,24.28
2023-05-25T08:14:18.591Z,24.27
2023-05-25T08:16:48.647Z,24.25
2023-05-25T08:19:18.640Z,24.23
2023-05-25T08:21:48.787Z,24.18
2023-05-25T08:24:18.692Z,24.12
2023-05-25T08:26:54.902Z,24.08
2023-05-25T08:29:25.433Z,24.06
2023-05-25T08:31:55.351Z,24.07
2023-05-25T08:34:25.250Z,24.12
2023-05-25T08:36:55.182Z,24.21
2023-05-25T08:39:25.130Z,24.30
2023-05-25T08:41:55.561Z,24.40
2023-05-25T08:44:25.680Z,24.50
2023-05-25T08:46:56.219Z,24.61
2023-05-25T08:49:26.232Z,24.70
2023-05-25T08:51:57.065Z,24.75
2023-05-25T08:54:32.562Z,24.80
2023-05-25T08:57:04.554Z,24.84
2023-05-25T08:59:37.312Z,24.87
2023-05-25T09:02:13.711Z,24.90
2023-05-25T09:04:44.560Z,24.97
2023-05-25T09:07:14.566Z,25.04
2023-05-25T09:09:44.752Z,25.11
2023-05-25T09:12:14.718Z,25.15
2023-05-25T09:14:48.200Z,25.18
2023-05-25T09:17:20.021Z,25.22
2023-05-25T09:19:51.186Z,25.28
2023-05-25T09:22:21.505Z,25.36
2023-05-25T09:24:51.623Z,25.43
2023-05-25T09:27:22.461Z,25.47
2023-05-25T09:29:52.546Z,25.51
2023-05-25T09:32:22.644Z,25.54
2023-05-25T09:34:53.600Z,25.56
2023-05-25T09:37:23.771Z,25.56
2023-05-25T09:39:53.793Z,25.60
2023-05-25T09:42:23.969Z,25.67
2023-05-25T09:44:54.008Z,25.76
2023-05-25T09:47:23.957Z,25.84
2023-05-25T09:49:54.287Z,25.93
2023-05-25T09:52:24.262Z,26.03
2023-05-25T09:54:55.064Z,26.13
2023-05-25T09:57:24.951Z,26.24
2023-05-25T09:59:54.938Z,26.32
2023-05-25T10:02:24.935Z,26.40
2023-05-25T10:04:55.051Z,26.51
2023-05-25T10:07:28.216Z,26.61
2023-05-25T10:10:00.217Z,26.69
2023-05-25T10:12:30.545Z,26.75
2023-05-25T10:15:00.774Z,26.82
2023-05-25T10:17:31.384Z,26.88
2023-05-25T10:20:01.656Z,26.95
2023-05-25T10:22:35.924Z,27.01
2023-05-25T10:25:10.325Z,27.09
2023-05-25T10:27:41.129Z,27.16
2023-05-25T10:30:12.452Z,27.23
2023-05-25T10:32:43.003Z,27.31
2023-05-25T10:35:13.069Z,27.37
2023-05-25T10:37:43.722Z,27.39
2023-05-25T10:40:15.304Z,27.39
2023-05-25T10:42:45.717Z,27.38
2023-05-25T10:45:16.789Z,27.35
2023-05-25T10:47:47.265Z,27.32
2023-05-25T10:50:26.307Z,27.30
2023-05-25T10:53:03.376Z,27.33
2023-05-25T10:55:43.705Z,27.38
2023-05-25T10:58:14.495Z,27.44
2023-05-25T11:00:45.674Z,27.49
2023-05-25T11:03:15.847Z,27.53
2023-05-25T11:05:46.917Z,27.60
2023-05-25T11:08:19.407Z,27.67
2023-05-25T11:10:54.221Z,27.76
2023-05-25T11:13:32.581Z,27.83
2023-05-25T11:16:20.720Z,27.87
2023-05-25T11:18:55.281Z,27.88
2023-05-25T11:21:45.301Z,27.88
2023-05-25T11:24:18.698Z,27.85
2023-05-25T11:26:56.481Z,27.82
2023-05-25T11:29:27.333Z,27.77
2023-05-25T11:31:57.843Z,27.70
2023-05-25T11:34:28.976Z,27.63
2023-05-25T11:37:02.247Z,27.58
2023-05-25T11:39:32.513Z,27.53
2023-05-25T11:42:06.878Z,27.50
2023-05-25T11:44:39.136Z,27.50
2023-05-25T11:47:10.149Z,27.53
2023-05-25T11:49:46.319Z,27.56
2023-05-25T11:52:16.904Z,27.56
2023-05-25T11:54:47.750Z,27.55
2023-05-25T11:57:18.996Z,27.56
2023-05-25T11:59:52.259Z,27.60
2023-05-25T12:02:22.367Z,27.67
2023-05-25T12:04:55.870Z,27.74
2023-05-25T12:07:26.547Z,27.80
2023-05-25T12:10:07.510Z,27.84
2023-05-25T12:12:41.855Z,27.91
2023-05-25T12:15:13.186Z,27.97
2023-05-25T12:17:44.194Z,28.01
2023-05-25T12:20:15.579Z,28.05
2023-05-25T12:22:46.247Z,28.12
2023-05-25T12:25:19.548Z,28.20
2023-05-25T12:27:49.826Z,28.31
2023-05-25T12:30:19.884Z,28.40
2023-05-25T12:33:02.815Z,28.46
2023-05-25T12:35:46.249Z,28.49
2023-05-25T12:38:17.680Z,28.51
2023-05-25T12:40:48.017Z,28.53
2023-05-25T12:43:18.397Z,28.53
2023-05-25T12:45:48.672Z,28.52
2023-05-25T12:48:18.770Z,28.52
2023-05-25T12:51:01.210Z,28.50
2023-05-25T12:53:31.519Z,28.47
2023-05-25T12:56:04.737Z,28.43
2023-05-25T12:58:35.610Z,28.40
2023-05-25T13:01:09.570Z,28.38
2023-05-25T13:03:40.167Z,28.39
2023-05-25T14:20:26.341Z,26.59
2023-05-25T14:22:56.609Z,26.70
2023-05-25T14:25:26.489Z,26.76
2023-05-25T14:27:57.942Z,26.81
2023-05-25T14:30:27.980Z,26.85
2023-05-25T14:32:59.903Z,26.89
2023-05-25T14:35:30.145Z,26.97
2023-05-25T14:38:00.539Z,27.08
2023-05-25T14:40:30.871Z,27.18
2023-05-25T14:43:00.829Z,27.26
2023-05-25T14:45:30.900Z,27.33
2023-05-25T14:48:15.426Z,27.37
2023-05-25T14:50:46.846Z,27.38
2023-05-25T14:53:16.855Z,27.34
2023-05-25T14:55:46.910Z,27.27
2023-05-25T14:58:16.914Z,27.20
2023-05-25T15:00:46.809Z,27.12
2023-05-25T15:03:17.178Z,26.99
2023-05-25T15:05:47.688Z,26.84
2023-05-25T15:08:17.658Z,26.61
2023-05-25T15:10:49.086Z,26.35
2023-05-25T15:13:22.516Z,26.08
2023-05-25T15:15:57.140Z,25.78
2023-05-25T15:18:27.173Z,25.47
2023-05-25T15:20:58.138Z,25.18
2023-05-25T15:23:28.459Z,24.93
2023-05-25T15:26:03.088Z,24.72
2023-05-25T15:28:33.140Z,24.58
2023-05-25T15:31:03.497Z,24.46
2023-05-25T15:36:07.981Z,24.20
2023-05-25T15:38:38.273Z,24.05
2023-05-25T15:41:08.585Z,23.91
2023-05-25T15:43:38.744Z,23.75
2023-05-25T15:46:08.742Z,23.61
2023-05-25T15:48:39.012Z,23.52
2023-05-25T15:51:09.247Z,23.44
2023-05-25T15:53:39.790Z,23.34
2023-05-25T15:56:09.902Z,23.25
2023-05-25T15:58:40.041Z,23.19
2023-05-25T16:01:12.508Z,23.12
2023-05-25T16:03:44.922Z,23.08
2023-05-25T16:06:16.990Z,23.03
2023-05-25T16:08:47.253Z,22.98
2023-05-25T16:11:17.267Z,22.93
2023-05-25T16:13:48.751Z,22.90
2023-05-25T16:16:21.292Z,22.90
2023-05-25T16:18:51.822Z,22.91
2023-05-25T16:21:21.798Z,22.90
2023-05-25T16:23:52.109Z,22.90
2023-05-25T16:26:22.541Z,22.88
2023-05-25T16:28:52.477Z,22.85
2023-05-25T16:31:22.462Z,22.82
2023-05-25T16:33:52.410Z,22.81
2023-05-25T16:36:22.736Z,22.79
2023-05-25T16:38:53.895Z,22.78
2023-05-25T16:41:24.027Z,22.78
2023-05-25T16:43:54.257Z,22.76
2023-05-25T16:46:25.736Z,22.76
2023-05-25T16:48:56.776Z,22.75
2023-05-25T16:51:27.246Z,22.73
2023-05-25T16:53:57.476Z,22.72
2023-05-25T16:56:27.953Z,22.70
2023-05-25T16:58:58.107Z,22.68
2023-05-25T17:01:28.183Z,22.66
2023-05-25T17:03:58.409Z,22.64
2023-05-25T17:22:32.489Z,22.45
2023-05-25T17:25:03.726Z,22.37
2023-05-25T17:27:33.882Z,22.32
2023-05-25T17:30:05.066Z,22.27
2023-05-25T17:32:36.000Z,22.22
2023-05-25T17:35:06.507Z,22.16
2023-05-25T17:37:36.784Z,22.11
2023-05-25T17:50:47.750Z,21.87
2023-05-25T17:53:18.450Z,21.76
2023-05-25T17:55:48.805Z,21.69
2023-05-25T17:58:19.203Z,21.63
2023-05-25T18:00:49.479Z,21.55
2023-05-25T18:03:19.665Z,21.45
2023-05-25T18:05:50.126Z,21.37
2023-05-25T18:08:21.324Z,21.30
2023-05-25T18:10:52.964Z,21.21
2023-05-25T18:13:23.018Z,21.12
2023-05-25T18:15:53.027Z,21.04
2023-05-25T18:18:24.817Z,20.98
2023-05-25T18:20:54.782Z,20.91
2023-05-25T18:23:24.985Z,20.83
2023-05-25T18:25:55.193Z,20.76
2023-05-25T18:28:25.874Z,20.69
2023-05-25T18:30:56.097Z,20.62
2023-05-25T18:33:27.294Z,20.55
2023-05-25T18:35:58.112Z,20.47
2023-05-25T18:38:28.320Z,20.40
2023-05-25T18:40:58.583Z,20.36
2023-05-25T18:43:28.621Z,20.30
2023-05-25T18:45:58.797Z,20.25
2023-05-25T18:48:28.961Z,20.19
2023-05-25T18:50:58.885Z,20.15
2023-05-25T18:53:29.113Z,20.11
2023-05-25T18:55:59.313Z,20.07
2023-05-25T18:58:29.424Z,20.05
2023-05-25T19:00:59.550Z,20.04
2023-05-25T19:03:30.251Z,20.03
2023-05-25T19:06:00.601Z,20.02
2023-05-25T19:08:30.732Z,19.98
2023-05-25T19:11:00.770Z,19.91
2023-05-25T19:13:31.550Z,19.82
2023-05-25T19:16:03.593Z,19.74
2023-05-25T19:18:34.257Z,19.65
2023-05-25T19:21:05.046Z,19.57
2023-05-25T19:23:35.471Z,19.51
2023-05-25T19:26:06.551Z,19.45
2023-05-25T19:28:37.025Z,19.37
2023-05-25T19:31:07.049Z,19.29
2023-05-25T19:33:37.228Z,19.22
2023-05-25T19:36:07.561Z,19.16
2023-05-25T19:38:42.250Z,19.10
2023-05-25T19:41:12.453Z,19.03
2023-05-25T19:43:42.498Z,19.00
2023-05-25T19:46:12.470Z,18.96
2023-05-25T19:48:43.013Z,18.92
2023-05-25T19:51:13.142Z,18.89
2023-05-25T19:53:43.578Z,18.86
2023-05-25T19:56:13.457Z,18.83
2023-05-25T19:58:46.408Z,18.80
2023-05-25T20:01:16.622Z,18.76
2023-05-25T20:03:46.799Z,18.72
2023-05-25T20:06:17.154Z,18.69
2023-05-25T20:08:47.776Z,18.66
2023-05-25T20:11:18.283Z,18.63
2023-05-25T20:13:49.765Z,18.58
2023-05-25T20:16:19.850Z,18.54
2023-05-25T20:18:49.836Z,18.50
2023-05-25T20:21:20.839Z,18.45
2023-05-25T20:23:51.769Z,18.41
2023-05-25T20:26:21.764Z,18.38
2023-05-25T20:28:52.454Z,18.34
2023-05-25T20:31:23.758Z,18.31
2023-05-25T20:33:53.785Z,18.26
2023-05-25T20:36:24.407Z,18.23
2023-05-25T20:38:54.841Z,18.18
2023-05-25T20:41:24.966Z,18.14
2023-05-25T20:43:55.073Z,18.10
2023-05-25T20:46:26.230Z,18.05
2023-05-25T20:48:58.586Z,18.00
2023-05-25T20:51:28.646Z,17.95
2023-05-25T20:53:58.906Z,17.91
2023-05-25T20:56:29.054Z,17.88
2023-05-25T20:58:59.263Z,17.85
2023-05-25T21:01:29.685Z,17.81
2023-05-25T21:03:59.727Z,17.78
2023-05-25T21:06:30.387Z,17.75
2023-05-25T21:09:01.670Z,17.72
2023-05-25T21:11:32.014Z,17.69
2023-05-25T21:14:02.206Z,17.66
2023-05-25T21:16:32.781Z,17.61
2023-05-25T21:19:03.004Z,17.56
2023-05-25T21:21:34.023Z,17.53
2023-05-25T21:24:04.100Z,17.50
2023-05-25T21:26:34.985Z,17.47
2023-05-25T21:29:05.096Z,17.43
2023-05-25T21:31:35.268Z,17.42
2023-05-25T21:34:05.464Z,17.41
2023-05-25T21:36:36.090Z,17.40
2023-05-25T21:39:06.399Z,17.38
2023-05-25T21:41:36.636Z,17.37
2023-05-25T21:44:07.033Z,17.36
2023-05-25T21:46:38.644Z,17.36
2023-05-25T21:49:08.911Z,17.35
2023-05-25T21:51:39.152Z,17.35
2023-05-25T21:54:09.228Z,17.35
2023-05-25T21:56:39.704Z,17.35
2023-05-25T21:59:09.571Z,17.35
2023-05-25T22:01:39.628Z,17.34
2023-05-25T22:04:09.801Z,17.31
2023-05-25T22:06:40.334Z,17.28
2023-05-25T22:09:10.664Z,17.27
2023-05-25T22:11:41.623Z,17.25
2023-05-25T22:14:12.324Z,17.23
2023-05-25T22:16:43.181Z,17.21
2023-05-25T22:19:13.436Z,17.19
2023-05-25T22:21:43.554Z,17.16
2023-05-25T22:24:14.199Z,17.14
2023-05-25T22:26:52.596Z,17.11
2023-05-25T22:29:24.283Z,17.08
2023-05-25T22:31:55.843Z,17.05
2023-05-25T22:34:26.975Z,17.02
2023-05-25T22:36:58.746Z,17.00
2023-05-25T22:39:30.367Z,16.98
2023-05-25T22:42:01.507Z,16.95
2023-05-25T22:44:31.584Z,16.93
2023-05-25T22:47:01.506Z,16.93
2023-05-25T22:49:31.642Z,16.92
2023-05-25T22:52:01.740Z,16.90
2023-05-25T22:54:31.988Z,16.88
2023-05-25T22:57:02.312Z,16.86
2023-05-25T22:59:32.262Z,16.84
2023-05-25T23:02:02.525Z,16.83
2023-05-25T23:04:32.684Z,16.81
2023-05-25T23:07:02.818Z,16.79
2023-05-25T23:09:32.877Z,16.78
2023-05-25T23:12:03.533Z,16.76
2023-05-25T23:14:35.768Z,16.75
2023-05-25T23:17:06.313Z,16.74
2023-05-25T23:19:36.213Z,16.73
2023-05-25T23:22:06.242Z,16.72
2023-05-25T23:24:36.515Z,16.71
2023-05-25T23:27:09.242Z,16.70
2023-05-25T23:29:39.438Z,16.68
2023-05-25T23:32:09.727Z,16.64
2023-05-25T23:34:40.227Z,16.61
2023-05-25T23:37:10.780Z,16.59
2023-05-25T23:39:42.297Z,16.55
2023-05-25T23:42:15.478Z,16.54
2023-05-25T23:44:45.636Z,16.51
2023-05-25T23:47:16.080Z,16.50
2023-05-25T23:49:46.613Z,16.47
2023-05-25T23:52:16.932Z,16.44
2023-05-25T23:54:47.074Z,16.41
2023-05-25T23:57:17.230Z,16.39
2023-05-25T23:59:47.095Z,16.37
